Alev Kaman — TCCN5 — position and weather

sailwx.info

Track history (hours):
 
Tides and Currents Weather Stations Pressure Air Temp Water Temp Dewpoint Dewpoint Depression Visibility Wind Speed Wind Dir Waves Ship Positions

Alev Kaman

Last reported at 2015-Jul-24 01:24 UTC. Time now 2015-Aug-01 01:31 UTC.
Position N 40°43' E 028°38'.
Warning: this ship's position is 8 days out of date.

Length 93 m; draft 5.9 m.

Type: Tanker. MMSI: 271000716.

Date/timePositionNaut miles runAvg speedWind from/ knotsBaromVisibWave heightAir tempDewpointWater temp
2015-Jul-24 01:24N 40°43' E 028°38'8 9.1
2015-Jul-24 00:33N 40°44' E 028°48'9 9.2
2015-Jul-23 23:32N 40°44' E 029°01'9 9.3
2015-Jul-23 22:33N 40°44' E 029°13'9 9.1
2015-Jul-23 21:33N 40°45' E 029°25'11 9.3
2015-Jul-23 20:23N 40°45' E 029°39'  
2015-Jul-21 07:33N 40°44' E 029°26'10 9.6
2015-Jul-21 06:33N 40°43' E 029°13'10 9.7
2015-Jul-21 05:32N 40°43' E 029°00'9 8.8
2015-Jul-21 04:33N 40°43' E 028°49'10 9.1
2015-Jul-21 03:27N 40°44' E 028°35'9 9.0
2015-Jul-21 02:29N 40°44' E 028°24'  
2015-Jul-16 13:33N 40°46' E 028°48'10 9.0
2015-Jul-16 12:26N 40°45' E 029°01'8 8.8
2015-Jul-16 11:33N 40°45' E 029°11'9 9.0
2015-Jul-16 10:31N 40°45' E 029°23'  
Track history (hours):
 
Tides and Currents Weather Stations Pressure Air Temp Water Temp Dewpoint Dewpoint Depression Visibility Wind Speed Wind Dir Waves Ship Positions

Alev Kaman

Last reported at 2015-Jul-24 01:24 UTC. Time now 2015-Aug-01 01:31 UTC.
Position N 40°43' E 028°38'.
Warning: this ship's position is 8 days out of date.

Length 93 m; draft 5.9 m.

Type: Tanker. MMSI: 271000716.

Date/timePositionNaut miles runAvg speedWind from/ knotsBaromVisibWave heightAir tempDewpointWater temp
2015-Jul-24 01:24N 40°43' E 028°38'8 9.1
2015-Jul-24 00:33N 40°44' E 028°48'9 9.2
2015-Jul-23 23:32N 40°44' E 029°01'9 9.3
2015-Jul-23 22:33N 40°44' E 029°13'9 9.1
2015-Jul-23 21:33N 40°45' E 029°25'11 9.3
2015-Jul-23 20:23N 40°45' E 029°39'  
2015-Jul-21 07:33N 40°44' E 029°26'10 9.6
2015-Jul-21 06:33N 40°43' E 029°13'10 9.7
2015-Jul-21 05:32N 40°43' E 029°00'9 8.8
2015-Jul-21 04:33N 40°43' E 028°49'10 9.1
2015-Jul-21 03:27N 40°44' E 028°35'9 9.0
2015-Jul-21 02:29N 40°44' E 028°24'  
2015-Jul-16 13:33N 40°46' E 028°48'10 9.0
2015-Jul-16 12:26N 40°45' E 029°01'8 8.8
2015-Jul-16 11:33N 40°45' E 029°11'9 9.0
2015-Jul-16 10:31N 40°45' E 029°23'  

Dump ship's entire track history